ADDS METAR Data INFO
IDs: Format: Raw Decoded Include TAF

Data at: 0835 UTC 21 Oct 2017

KDCU 210753Z AUTO 10005KT 10SM CLR 12/11 A3018 RMK AO2 SLP215 T01220111
KDCU 210653Z AUTO 11005KT 10SM CLR 13/11 A3019 RMK AO2 SLP218 T01280111
KDCU 210553Z AUTO 00000KT 10SM CLR 10/10 A3019 RMK AO2 SLP220 T01000100 10144 20100 402560044 53003
KDCU 210453Z AUTO 00000KT 10SM CLR 11/11 A3019 RMK AO2 SLP218 T01060106
KDCU 210353Z AUTO 10006KT 10SM CLR 14/12 A3019 RMK AO2 SLP218 T01390117
KDCU 210253Z AUTO 10005KT 10SM CLR 13/11 A3018 RMK AO2 SLP218 T01280106 50001
KDCU 210153Z AUTO 09005KT 10SM CLR 13/10 A3019 RMK AO2 SLP220 T01330100
KDCU 210053Z AUTO 00000KT 10SM CLR 13/11 A3018 RMK AO2 SLP220 T01280111
KDCU 202353Z AUTO 00000KT 10SM CLR 14/10 A3018 RMK AO2 SLP221 T01390100 10256 20139 53003
KDCU 202253Z AUTO 08004KT 10SM CLR 17/10 A3017 RMK AO2 SLP217 T01670100
KDCU 202153Z AUTO 10003KT 10SM CLR 24/07 A3018 RMK AO2 SLP215 T02390067
KDCU 202053Z AUTO 12005KT 10SM CLR 25/04 A3017 RMK AO2 SLP215 T02500044 56026
KDCU 201953Z AUTO 13007KT 10SM CLR 26/03 A3018 RMK AO2 SLP218 T02560033
KDCU 201853Z AUTO 10SM CLR 24/06 A3021 RMK AO2 SLP227 T02440061
KDCU 201753Z AUTO VRB03KT 10SM CLR 24/09 A3025 RMK AO2 SLP242 T02390094 10239 20050 58019
KDCU 201653Z AUTO 00000KT 10SM CLR 22/11 A3028 RMK AO2 SLP251 T02220106
KDCU 201553Z AUTO 12003KT 10SM CLR 19/11 A3030 RMK AO2 SLP260 T01890111
KDCU 201453Z AUTO 08004KT 10SM CLR 16/12 A3031 RMK AO2 SLP263 T01610117 51006
KDCU 201353Z AUTO 11004KT 10SM CLR 12/11 A3031 RMK AO2 SLP262 T01220106
KDCU 201253Z AUTO 00000KT 7SM CLR 08/08 A3030 RMK AO2 SLP261 T00830083
KDCU 201153Z AUTO 00000KT 9SM CLR 05/05 A3029 RMK AO2 SLP257 T00500050 10083 20044 51011
KDCU 201053Z AUTO 00000KT 10SM CLR 05/05 A3028 RMK AO2 SLP252 T00500050
KDCU 200953Z AUTO 00000KT 9SM CLR 05/05 A3027 RMK AO2 SLP249 T00500050
KDCU 200937Z AUTO 00000KT 3SM BR CLR 06/06 A3027 RMK AO2 T00610061
KDCU 200927Z AUTO 00000KT 1 3/4SM BR CLR 06/06 A3027 RMK AO2 T00560056
KDCU 200913Z AUTO 00000KT 3SM BR CLR 06/06 A3027 RMK AO2 T00610061
KDCU 200904Z AUTO 00000KT 1 3/4SM BR CLR 06/06 A3026 RMK AO2 T00610061
KDCU 200853Z AUTO 00000KT 9SM CLR 06/06 A3026 RMK AO2 SLP244 T00610061 53003
KDCU 200845Z AUTO 00000KT 9SM CLR 06/06 A3026 RMK AO2 T00560056
KDCU 200837Z AUTO 00000KT 2SM BR CLR 06/06 A3026 RMK AO2 T00610061
KDCU 200823Z AUTO 00000KT 3/4SM BR CLR 06/06 A3026 RMK AO2 T00610061
KDCU 200813Z AUTO 00000KT 1 3/4SM BR CLR 06/06 A3026 RMK AO2 T00610061
KDCU 200753Z AUTO 00000KT 10SM CLR 07/07 A3025 RMK AO2 SLP242 T00670067
KDCU 200736Z AUTO 00000KT 6SM BR CLR 06/06 A3025 RMK AO2 T00610061
KDCU 200729Z AUTO 00000KT 2SM BR CLR 07/07 A3025 RMK AO2 T00670067
KDCU 200721Z AUTO 00000KT 1/2SM FG CLR 06/06 A3025 RMK AO2 T00610061
KDCU 200712Z AUTO 00000KT 1 3/4SM BR CLR 07/07 A3026 RMK AO2 VIS 1/2V5 T00720072
KDCU 200653Z AUTO 00000KT 10SM CLR 07/07 A3025 RMK AO2 SLP242 T00670067
KDCU 200553Z AUTO 00000KT 10SM CLR 07/07 A3025 RMK AO2 SLP241 T00720072 10150 20061 402440050 55001
KDCU 200453Z AUTO 00000KT 10SM CLR 08/08 A3025 RMK AO2 SLP240 T00830083
KDCU 200353Z AUTO 00000KT 8SM CLR 08/08 A3025 RMK AO2 SLP242 T00780078
KDCU 200253Z AUTO 00000KT 10SM CLR 09/09 A3025 RMK AO2 SLP243 T00890089 51003
KDCU 200153Z AUTO 00000KT 10SM CLR 11/10 A3025 RMK AO2 SLP241 T01110100
KDCU 200053Z AUTO 00000KT 10SM CLR 12/12 A3025 RMK AO2 SLP243 T01170117
KDCU 192353Z AUTO 00000KT 10SM CLR 15/12 A3024 RMK AO2 SLP240 T01500122 10244 20150 53004
KDCU 192253Z AUTO 00000KT 10SM CLR 19/13 A3023 RMK AO2 SLP235 T01890128
KDCU 192153Z AUTO 22003KT 10SM CLR 24/09 A3023 RMK AO2 SLP233 T02390089
KDCU 192053Z AUTO 20005KT 9SM CLR 24/08 A3023 RMK AO2 SLP235 T02390083 56019